createdAt,value
2018-02-27T00:00:15.307Z,5.40
2018-02-27T00:02:42.850Z,9.05
2018-02-27T00:05:10.375Z,10.52
2018-02-27T00:07:37.898Z,6.60
2018-02-27T00:10:05.768Z,8.77
2018-02-27T00:12:33.294Z,8.63
2018-02-27T00:15:01.165Z,7.93
2018-02-27T00:17:28.686Z,8.88
2018-02-27T00:19:56.202Z,4.53
2018-02-27T00:22:23.749Z,7.00
2018-02-27T00:24:51.329Z,8.90
2018-02-27T00:27:19.053Z,10.13
2018-02-27T00:29:46.638Z,7.40
2018-02-27T00:32:14.157Z,7.65
2018-02-27T00:34:42.173Z,12.02
2018-02-27T00:37:09.681Z,7.43
2018-02-27T00:39:37.565Z,9.38
2018-02-27T00:42:05.083Z,9.23
2018-02-27T00:44:32.605Z,5.32
2018-02-27T00:47:00.155Z,5.93
2018-02-27T00:49:27.681Z,8.65
2018-02-27T00:51:55.465Z,9.02
2018-02-27T00:54:22.982Z,6.12
2018-02-27T00:56:50.499Z,12.30
2018-02-27T00:59:18.042Z,7.70
2018-02-27T01:01:45.582Z,7.85
2018-02-27T01:04:13.137Z,7.68
2018-02-27T01:06:40.676Z,7.47
2018-02-27T01:09:08.190Z,8.85
2018-02-27T01:11:35.758Z,9.70
2018-02-27T01:14:03.277Z,9.23
2018-02-27T01:16:30.859Z,5.20
2018-02-27T01:18:58.394Z,10.52
2018-02-27T01:21:25.908Z,11.80
2018-02-27T01:23:53.462Z,8.95
2018-02-27T01:26:20.992Z,7.20
2018-02-27T01:28:48.857Z,8.68
2018-02-27T01:31:16.372Z,9.77
2018-02-27T01:33:43.890Z,8.20
2018-02-27T01:36:11.436Z,8.20
2018-02-27T01:38:38.951Z,8.65
2018-02-27T01:41:06.643Z,7.65
2018-02-27T01:43:34.150Z,8.60
2018-02-27T01:46:01.663Z,7.55
2018-02-27T01:48:29.202Z,5.93
2018-02-27T01:51:08.733Z,14.05
2018-02-27T01:53:36.283Z,14.85
2018-02-27T01:56:03.813Z,6.90
2018-02-27T01:58:31.325Z,10.20
2018-02-27T02:00:58.890Z,7.53
2018-02-27T02:03:26.419Z,6.57
2018-02-27T02:05:54.129Z,9.07
2018-02-27T02:08:21.655Z,13.57
2018-02-27T02:10:49.173Z,9.57
2018-02-27T02:13:16.712Z,8.55
2018-02-27T02:15:45.775Z,5.78
2018-02-27T02:18:13.351Z,12.10
2018-02-27T02:20:40.861Z,8.35
2018-02-27T02:23:08.383Z,8.80
2018-02-27T02:25:35.927Z,8.63
2018-02-27T02:28:03.439Z,15.35
2018-02-27T02:30:30.987Z,2.30
2018-02-27T02:32:58.518Z,15.70
2018-02-27T02:35:26.026Z,6.97
2018-02-27T02:37:53.594Z,7.87
2018-02-27T02:40:21.110Z,9.70
2018-02-27T02:42:49.063Z,8.88
2018-02-27T02:45:16.570Z,6.30
2018-02-27T02:47:44.266Z,10.07
2018-02-27T02:50:11.794Z,10.77
2018-02-27T02:52:40.441Z,9.32
2018-02-27T02:55:07.983Z,8.93
2018-02-27T02:57:35.493Z,12.20
2018-02-27T03:00:03.409Z,12.25
2018-02-27T03:02:30.925Z,6.30
2018-02-27T03:04:58.441Z,13.27
2018-02-27T03:07:25.986Z,10.88
2018-02-27T03:09:53.494Z,8.30
2018-02-27T03:12:21.041Z,7.47
2018-02-27T03:14:48.562Z,12.25
2018-02-27T03:17:16.531Z,8.80
2018-02-27T03:19:44.075Z,11.63
2018-02-27T03:22:11.682Z,10.85
2018-02-27T03:24:39.389Z,13.00
2018-02-27T03:27:06.896Z,7.95
2018-02-27T03:29:34.414Z,10.40
2018-02-27T03:32:01.958Z,8.48
2018-02-27T03:34:30.459Z,12.23
2018-02-27T03:36:58.110Z,8.60
2018-02-27T03:39:25.631Z,8.20
2018-02-27T03:41:53.143Z,12.63
2018-02-27T03:44:20.682Z,8.20
2018-02-27T03:46:48.190Z,8.60
2018-02-27T03:49:15.902Z,10.65
2018-02-27T03:51:43.413Z,4.80
2018-02-27T03:54:10.944Z,9.57
2018-02-27T03:56:39.341Z,4.95
2018-02-27T03:59:06.846Z,9.50
2018-02-27T04:01:34.621Z,7.28
2018-02-27T04:04:02.134Z,7.87
2018-02-27T04:06:29.659Z,17.55
2018-02-27T04:08:57.219Z,11.20
2018-02-27T04:11:24.733Z,8.05
2018-02-27T04:13:52.281Z,7.80
2018-02-27T04:16:19.797Z,9.40
2018-02-27T04:18:47.318Z,8.05
2018-02-27T04:21:14.876Z,11.18
2018-02-27T04:23:42.396Z,8.57
2018-02-27T04:26:10.138Z,20.88
2018-02-27T04:28:37.656Z,7.82
2018-02-27T04:31:05.162Z,8.80
2018-02-27T04:33:32.706Z,10.60
2018-02-27T04:36:00.221Z,3.03
2018-02-27T04:38:28.014Z,11.77
2018-02-27T04:40:55.545Z,11.98
2018-02-27T04:43:23.063Z,8.93
2018-02-27T04:45:50.610Z,11.30
2018-02-27T04:48:18.132Z,11.65
2018-02-27T04:50:45.939Z,10.65
2018-02-27T04:53:13.485Z,7.37
2018-02-27T04:55:41.002Z,6.53
2018-02-27T04:58:08.545Z,8.63
2018-02-27T05:00:36.077Z,10.70
2018-02-27T05:03:03.815Z,12.15
2018-02-27T05:05:32.200Z,12.57
2018-02-27T05:08:00.490Z,9.98
2018-02-27T05:10:28.033Z,8.20
2018-02-27T05:12:55.549Z,12.80
2018-02-27T05:15:23.344Z,12.52
2018-02-27T05:17:50.878Z,10.10
2018-02-27T05:20:18.388Z,6.28
2018-02-27T05:22:45.925Z,7.62
2018-02-27T05:25:13.450Z,11.88
2018-02-27T05:27:40.998Z,18.58
2018-02-27T05:30:08.514Z,3.28
2018-02-27T05:32:36.035Z,27.83
2018-02-27T05:35:03.584Z,26.30
2018-02-27T05:37:31.113Z,15.93
2018-02-27T05:39:58.838Z,15.95
2018-02-27T05:42:26.420Z,19.25
2018-02-27T05:44:53.947Z,16.37
2018-02-27T05:47:21.486Z,12.68
2018-02-27T05:49:49.014Z,11.88
2018-02-27T05:52:16.569Z,20.15
2018-02-27T05:54:44.095Z,12.13
2018-02-27T05:57:11.611Z,19.75
2018-02-27T05:59:39.172Z,15.85
2018-02-27T06:02:06.690Z,19.58
2018-02-27T06:04:34.429Z,14.73
2018-02-27T06:07:02.930Z,12.05
2018-02-27T06:09:30.489Z,16.20
2018-02-27T06:11:58.046Z,15.93
2018-02-27T06:14:25.561Z,15.90
2018-02-27T06:16:53.349Z,7.80
2018-02-27T06:19:20.866Z,13.68
2018-02-27T06:21:48.389Z,11.70
2018-02-27T06:24:15.943Z,5.40
2018-02-27T06:26:43.459Z,14.07
2018-02-27T06:29:11.037Z,10.32
2018-02-27T06:31:38.566Z,19.80
2018-02-27T06:34:06.081Z,8.57
2018-02-27T06:36:33.631Z,16.02
2018-02-27T06:39:01.153Z,17.10
2018-02-27T06:41:28.849Z,14.40
2018-02-27T06:43:56.374Z,12.70
2018-02-27T06:46:23.888Z,9.40
2018-02-27T06:48:52.358Z,16.15
2018-02-27T06:51:19.873Z,23.85
2018-02-27T06:53:47.665Z,15.05
2018-02-27T06:56:15.183Z,10.80
2018-02-27T06:58:42.703Z,9.57
2018-02-27T07:01:10.253Z,6.12
2018-02-27T07:03:37.774Z,7.68
2018-02-27T07:06:05.376Z,7.78
2018-02-27T07:08:32.891Z,12.63
2018-02-27T07:11:00.415Z,11.43
2018-02-27T07:13:27.956Z,9.73
2018-02-27T07:15:55.486Z,11.18
2018-02-27T07:18:23.156Z,22.20
2018-02-27T07:20:50.668Z,23.02
2018-02-27T07:23:18.177Z,12.10
2018-02-27T07:25:45.724Z,13.50
2018-02-27T07:28:13.237Z,21.62
2018-02-27T07:30:40.863Z,9.73
2018-02-27T07:33:08.402Z,11.52
2018-02-27T07:35:35.926Z,17.17
2018-02-27T07:38:03.470Z,9.52
2018-02-27T07:40:30.986Z,7.95
2018-02-27T07:42:58.542Z,20.92
2018-02-27T07:45:26.055Z,8.82
2018-02-27T07:47:53.584Z,10.30
2018-02-27T07:50:21.132Z,19.37
2018-02-27T07:52:48.646Z,12.45
2018-02-27T07:55:16.489Z,21.62
2018-02-27T07:57:44.013Z,36.80
2018-02-27T08:00:11.525Z,11.77
2018-02-27T08:02:39.074Z,12.18
2018-02-27T08:05:06.594Z,45.40
2018-02-27T08:07:34.177Z,19.73
2018-02-27T08:10:01.703Z,15.63
2018-02-27T08:12:29.226Z,29.00
2018-02-27T08:14:56.774Z,11.90
2018-02-27T08:17:24.397Z,43.05
2018-02-27T08:19:52.348Z,23.65
2018-02-27T08:22:19.868Z,17.50
2018-02-27T08:24:47.378Z,7.82
2018-02-27T08:27:14.929Z,17.42
2018-02-27T08:29:42.455Z,22.05
2018-02-27T08:32:10.253Z,13.20
2018-02-27T08:34:37.793Z,19.70
2018-02-27T08:37:05.310Z,15.15
2018-02-27T08:39:32.865Z,21.00
2018-02-27T08:42:00.394Z,19.00
2018-02-27T08:44:27.994Z,18.55
2018-02-27T08:46:55.519Z,27.15
2018-02-27T08:49:23.042Z,20.15
2018-02-27T08:51:50.595Z,20.75
2018-02-27T08:54:18.118Z,12.48
2018-02-27T08:56:45.826Z,12.70
2018-02-27T08:59:13.364Z,18.30
2018-02-27T09:01:40.897Z,15.00
2018-02-27T09:04:08.436Z,15.85
2018-02-27T09:06:35.948Z,17.55
2018-02-27T09:09:03.497Z,21.35
2018-02-27T09:11:31.009Z,11.80
2018-02-27T09:13:58.538Z,28.83
2018-02-27T09:16:26.089Z,13.10
2018-02-27T09:18:53.614Z,18.60
2018-02-27T09:21:21.365Z,16.85
2018-02-27T09:23:48.882Z,14.95
2018-02-27T09:26:16.396Z,25.40
2018-02-27T09:28:44.861Z,19.58
2018-02-27T09:31:12.381Z,14.15
2018-02-27T09:33:40.241Z,16.73
2018-02-27T09:36:07.763Z,18.75
2018-02-27T09:38:35.379Z,16.23
2018-02-27T09:41:02.949Z,14.27
2018-02-27T09:43:30.473Z,15.48
2018-02-27T09:45:58.038Z,19.08
2018-02-27T09:48:25.563Z,21.35
2018-02-27T09:50:53.109Z,17.90
2018-02-27T09:53:21.653Z,21.02
2018-02-27T09:55:49.164Z,20.45
2018-02-27T09:58:16.958Z,15.88
2018-02-27T10:00:45.457Z,15.80
2018-02-27T10:03:16.460Z,17.90
2018-02-27T10:05:44.048Z,19.20
2018-02-27T10:08:11.566Z,13.77
2018-02-27T10:10:39.566Z,21.90
2018-02-27T10:13:07.083Z,12.77
2018-02-27T10:15:34.594Z,21.70
2018-02-27T10:18:02.146Z,22.48
2018-02-27T10:20:29.741Z,31.77
2018-02-27T10:22:57.790Z,24.30
2018-02-27T10:25:25.313Z,27.02
2018-02-27T10:27:52.870Z,22.98
2018-02-27T10:30:20.422Z,21.77
2018-02-27T10:32:47.946Z,26.55
2018-02-27T10:35:15.590Z,24.45
2018-02-27T10:37:44.046Z,23.80
2018-02-27T10:40:11.574Z,15.90
2018-02-27T10:42:39.119Z,27.30
2018-02-27T10:45:06.654Z,27.27
2018-02-27T10:47:34.302Z,26.58
2018-02-27T10:50:01.823Z,16.62
2018-02-27T10:52:29.338Z,27.08
2018-02-27T10:54:56.886Z,18.67
2018-02-27T10:57:24.409Z,19.65
2018-02-27T10:59:52.183Z,26.33
2018-02-27T11:02:19.707Z,29.10
2018-02-27T11:04:47.737Z,13.30
2018-02-27T11:07:15.290Z,19.08
2018-02-27T11:09:43.259Z,23.83
2018-02-27T11:12:11.010Z,25.27
2018-02-27T11:14:38.596Z,25.95
2018-02-27T11:17:06.343Z,23.67
2018-02-27T11:19:34.305Z,22.52
2018-02-27T11:22:01.838Z,29.90
2018-02-27T11:24:29.616Z,40.65
2018-02-27T11:26:57.130Z,32.90
2018-02-27T11:29:24.653Z,31.27
2018-02-27T11:31:52.199Z,27.08
2018-02-27T11:34:19.709Z,29.85
2018-02-27T11:36:47.522Z,33.65
2018-02-27T11:39:15.047Z,26.35
2018-02-27T11:41:43.576Z,39.97
2018-02-27T11:44:11.141Z,30.25
2018-02-27T11:46:39.029Z,24.40
2018-02-27T11:49:06.618Z,26.17
2018-02-27T11:51:34.224Z,30.77
2018-02-27T11:54:01.759Z,29.00
2018-02-27T11:56:29.466Z,25.27
2018-02-27T11:58:57.070Z,24.45
2018-02-27T12:01:25.586Z,30.20
2018-02-27T12:03:53.106Z,29.92
2018-02-27T12:06:21.523Z,30.02
2018-02-27T12:08:50.107Z,32.25
2018-02-27T12:11:17.695Z,22.83
2018-02-27T12:13:45.466Z,43.13
2018-02-27T12:16:12.952Z,36.80
2018-02-27T12:18:40.466Z,27.05
2018-02-27T12:21:08.011Z,29.05
2018-02-27T12:23:35.543Z,26.95
2018-02-27T12:26:03.331Z,30.12
2018-02-27T12:28:30.875Z,46.45
2018-02-27T12:30:58.386Z,38.50
2018-02-27T12:33:25.951Z,41.30
2018-02-27T12:35:53.470Z,35.05
2018-02-27T12:38:21.209Z,33.55
2018-02-27T12:40:48.719Z,26.20
2018-02-27T12:43:16.250Z,25.65
2018-02-27T12:45:44.826Z,32.53
2018-02-27T12:48:12.692Z,36.33
2018-02-27T12:50:40.868Z,33.15
2018-02-27T12:53:08.395Z,28.35
2018-02-27T12:55:35.938Z,49.13
2018-02-27T12:58:03.604Z,36.05
2018-02-27T13:00:31.145Z,28.00
2018-02-27T13:02:58.892Z,47.45
2018-02-27T13:05:26.629Z,23.05
2018-02-27T13:07:54.395Z,25.08
2018-02-27T13:10:22.150Z,30.17
2018-02-27T13:12:49.930Z,28.20
2018-02-27T13:15:17.658Z,37.47
2018-02-27T13:17:45.220Z,36.65
2018-02-27T13:20:12.820Z,36.85
2018-02-27T13:22:40.775Z,28.62
2018-02-27T13:25:08.641Z,28.80
2018-02-27T13:27:36.499Z,23.45
2018-02-27T13:30:04.082Z,32.80
2018-02-27T13:32:31.809Z,21.40
2018-02-27T13:34:59.595Z,30.23
2018-02-27T13:37:27.304Z,27.05
2018-02-27T13:39:55.327Z,27.52
2018-02-27T13:42:22.944Z,26.35
2018-02-27T13:44:50.504Z,30.62
2018-02-27T13:47:18.062Z,26.05
2018-02-27T13:49:45.588Z,29.95
2018-02-27T13:52:14.529Z,34.35
2018-02-27T13:54:42.937Z,31.50
2018-02-27T13:57:10.801Z,34.35
2018-02-27T13:59:38.462Z,32.95
2018-02-27T14:02:06.297Z,32.55
2018-02-27T14:04:34.178Z,28.38
2018-02-27T14:07:01.961Z,31.90
2018-02-27T14:09:29.505Z,30.48
2018-02-27T14:11:57.064Z,29.50
2018-02-27T14:14:24.638Z,31.92
2018-02-27T14:16:52.636Z,35.20
2018-02-27T14:19:20.251Z,44.50
2018-02-27T14:21:48.031Z,38.85
2018-02-27T14:24:15.792Z,38.28
2018-02-27T14:26:43.327Z,46.67
2018-02-27T14:29:11.528Z,29.60
2018-02-27T14:31:39.087Z,27.52
2018-02-27T14:34:06.625Z,33.10
2018-02-27T14:36:34.181Z,27.83
2018-02-27T14:39:01.743Z,32.47
2018-02-27T14:41:29.837Z,24.70
2018-02-27T14:43:57.411Z,31.85
2018-02-27T14:46:24.967Z,32.00
2018-02-27T14:48:52.906Z,25.62
2018-02-27T14:51:20.690Z,30.90
2018-02-27T14:53:48.870Z,35.05
2018-02-27T14:56:16.445Z,35.33
2018-02-27T14:58:43.992Z,28.45
2018-02-27T15:01:11.573Z,31.75
2018-02-27T15:03:39.432Z,29.83
2018-02-27T15:06:07.581Z,37.45
2018-02-27T15:08:35.550Z,34.25
2018-02-27T15:11:04.195Z,33.70
2018-02-27T15:13:31.777Z,31.15
2018-02-27T15:15:59.704Z,34.15
2018-02-27T15:18:29.210Z,26.48
2018-02-27T15:20:58.119Z,29.12
2018-02-27T15:23:26.944Z,26.73
2018-02-27T15:25:54.695Z,26.05
2018-02-27T15:28:22.579Z,30.55
2018-02-27T15:30:50.650Z,37.80
2018-02-27T15:33:18.484Z,22.58
2018-02-27T15:35:46.380Z,33.83
2018-02-27T15:38:14.351Z,38.05
2018-02-27T15:40:42.117Z,28.77
2018-02-27T15:43:11.112Z,37.92
2018-02-27T15:45:38.975Z,35.33
2018-02-27T15:48:06.849Z,31.80
2018-02-27T15:50:34.523Z,29.95
2018-02-27T15:53:02.472Z,29.23
2018-02-27T15:55:30.745Z,34.47
2018-02-27T15:57:58.565Z,30.20
2018-02-27T16:00:26.371Z,36.13
2018-02-27T16:02:54.245Z,33.70
2018-02-27T16:05:22.109Z,41.70
2018-02-27T16:07:49.916Z,30.80
2018-02-27T16:10:17.952Z,28.02
2018-02-27T16:12:46.323Z,38.47
2018-02-27T16:15:14.090Z,32.33
2018-02-27T16:17:41.854Z,40.50
2018-02-27T16:20:09.820Z,30.10
2018-02-27T16:22:37.494Z,26.00
2018-02-27T16:25:05.963Z,23.20
2018-02-27T16:27:33.960Z,34.85
2018-02-27T16:30:01.902Z,23.33
2018-02-27T16:32:30.676Z,31.05
2018-02-27T16:34:58.418Z,72.72
2018-02-27T16:37:26.420Z,48.08
2018-02-27T16:39:54.389Z,48.53
2018-02-27T16:42:22.258Z,39.90
2018-02-27T16:44:50.224Z,52.45
2018-02-27T16:47:19.890Z,51.67
2018-02-27T16:49:48.057Z,56.92
2018-02-27T16:52:16.402Z,49.45
2018-02-27T16:54:44.341Z,88.90
2018-02-27T16:57:13.026Z,51.17
2018-02-27T16:59:41.008Z,41.65
2018-02-27T17:02:08.976Z,45.90
2018-02-27T17:04:36.946Z,47.70
2018-02-27T17:07:05.639Z,45.03
2018-02-27T17:09:33.599Z,29.08
2018-02-27T17:12:01.743Z,39.30
2018-02-27T17:14:29.845Z,42.65
2018-02-27T17:16:58.019Z,55.83
2018-02-27T17:19:26.327Z,33.42
2018-02-27T17:21:54.467Z,43.15
2018-02-27T17:24:22.744Z,34.72
2018-02-27T17:26:50.817Z,35.67
2018-02-27T17:29:18.680Z,35.95
2018-02-27T17:31:46.549Z,37.35
2018-02-27T17:34:14.778Z,33.55
2018-02-27T17:36:42.600Z,37.00
2018-02-27T17:39:10.411Z,41.97
2018-02-27T17:41:38.322Z,38.63
2018-02-27T17:44:06.190Z,39.28
2018-02-27T17:46:34.360Z,42.28
2018-02-27T17:49:02.330Z,45.70
2018-02-27T17:51:31.118Z,31.10
2018-02-27T17:53:58.980Z,43.55
2018-02-27T17:56:26.852Z,39.63
2018-02-27T17:58:54.991Z,38.88
2018-02-27T18:01:22.910Z,33.30
2018-02-27T18:03:50.697Z,39.70
2018-02-27T18:06:18.620Z,48.22
2018-02-27T18:08:46.801Z,48.58
2018-02-27T18:11:14.974Z,41.22
2018-02-27T18:13:42.734Z,34.03
2018-02-27T18:16:10.602Z,31.83
2018-02-27T18:18:38.674Z,37.95
2018-02-27T18:21:06.709Z,29.27
2018-02-27T18:23:35.144Z,27.77
2018-02-27T18:26:02.989Z,30.40
2018-02-27T18:28:31.662Z,29.75
2018-02-27T18:31:00.464Z,27.60
2018-02-27T18:33:28.945Z,26.40
2018-02-27T18:35:57.491Z,32.10
2018-02-27T18:38:25.500Z,50.30
2018-02-27T18:40:53.487Z,37.22
2018-02-27T18:43:25.045Z,33.38
2018-02-27T18:45:54.113Z,34.05
2018-02-27T18:48:22.417Z,47.40
2018-02-27T18:50:50.182Z,45.15
2018-02-27T18:53:17.976Z,35.65
2018-02-27T18:55:46.194Z,37.53
2018-02-27T18:58:14.060Z,26.98
2018-02-27T19:00:42.252Z,36.83
2018-02-27T19:03:10.613Z,22.37
2018-02-27T19:05:38.685Z,39.80
2018-02-27T19:08:06.653Z,35.05
2018-02-27T19:10:34.929Z,50.42
2018-02-27T19:13:03.106Z,48.45
2018-02-27T19:15:31.789Z,42.30
2018-02-27T19:17:59.757Z,37.17
2018-02-27T19:20:27.744Z,38.33
2018-02-27T19:22:56.209Z,29.95
2018-02-27T19:25:24.198Z,34.78
2018-02-27T19:27:52.144Z,38.08
2018-02-27T19:30:20.130Z,36.50
2018-02-27T19:32:47.999Z,30.10
2018-02-27T19:35:16.057Z,31.80
2018-02-27T19:37:44.328Z,28.52
2018-02-27T19:40:12.297Z,30.33
2018-02-27T19:42:40.163Z,39.63
2018-02-27T19:45:08.758Z,40.12
2018-02-27T19:47:36.716Z,41.80
2018-02-27T19:50:04.686Z,67.62
2018-02-27T19:52:32.570Z,51.90
2018-02-27T19:55:00.435Z,53.70
2018-02-27T19:57:29.620Z,45.40
2018-02-27T19:59:57.543Z,44.75
2018-02-27T20:02:26.067Z,41.10
2018-02-27T20:04:54.038Z,47.67
2018-02-27T20:07:21.900Z,42.88
2018-02-27T20:09:50.594Z,39.42
2018-02-27T20:12:19.151Z,40.05
2018-02-27T20:14:47.653Z,31.27
2018-02-27T20:17:15.932Z,49.92
2018-02-27T20:19:44.818Z,37.88
2018-02-27T20:22:13.266Z,33.55
2018-02-27T20:24:41.684Z,37.28
2018-02-27T20:27:09.623Z,43.35
2018-02-27T20:29:38.332Z,45.42
2018-02-27T20:32:06.505Z,42.33
2018-02-27T20:34:34.487Z,38.38
2018-02-27T20:37:02.443Z,45.95
2018-02-27T20:39:30.422Z,41.55
2018-02-27T20:41:58.297Z,43.35
2018-02-27T20:44:26.656Z,34.60
2018-02-27T20:46:54.626Z,37.88
2018-02-27T20:49:22.694Z,39.35
2018-02-27T20:51:50.878Z,42.35
2018-02-27T20:54:22.902Z,33.88
2018-02-27T20:56:51.332Z,40.05
2018-02-27T20:59:19.281Z,33.08
2018-02-27T21:01:47.165Z,31.52
2018-02-27T21:04:15.117Z,26.48
2018-02-27T21:06:42.982Z,34.65
2018-02-27T21:09:11.125Z,34.58
2018-02-27T21:11:39.555Z,31.40
2018-02-27T21:14:07.504Z,38.20
2018-02-27T21:16:35.396Z,42.62
2018-02-27T21:19:03.342Z,44.78
2018-02-27T21:21:31.206Z,50.53
2018-02-27T21:23:59.121Z,55.72
2018-02-27T21:26:27.040Z,50.15
2018-02-27T21:28:55.829Z,57.78
2018-02-27T21:31:23.696Z,55.75
2018-02-27T21:33:51.535Z,51.90
2018-02-27T21:36:19.961Z,47.92
2018-02-27T21:38:48.023Z,73.18
2018-02-27T21:41:15.878Z,60.35
2018-02-27T21:43:44.359Z,71.12
2018-02-27T21:46:12.170Z,54.25
2018-02-27T21:48:39.990Z,42.13
2018-02-27T21:51:07.963Z,39.35
2018-02-27T21:53:36.746Z,48.55
2018-02-27T21:56:04.715Z,18.98
2018-02-27T21:58:32.685Z,30.60
2018-02-27T22:01:01.165Z,35.58
2018-02-27T22:03:29.111Z,38.03
2018-02-27T22:05:58.026Z,37.85
2018-02-27T22:08:26.625Z,28.00
2018-02-27T22:10:54.958Z,35.22
2018-02-27T22:13:22.853Z,32.53
2018-02-27T22:15:51.220Z,38.17
2018-02-27T22:18:19.826Z,38.33
2018-02-27T22:20:48.173Z,34.33
2018-02-27T22:23:16.176Z,48.38
2018-02-27T22:25:43.948Z,39.00
2018-02-27T22:28:11.999Z,52.47
2018-02-27T22:30:40.087Z,32.28
2018-02-27T22:33:07.872Z,60.83
2018-02-27T22:35:35.597Z,27.95
2018-02-27T22:38:04.059Z,29.00
2018-02-27T22:40:31.946Z,27.08
2018-02-27T22:42:59.608Z,32.35
2018-02-27T22:45:27.392Z,38.33
2018-02-27T22:47:55.027Z,33.03
2018-02-27T22:50:22.778Z,20.75
2018-02-27T22:52:50.562Z,28.45
2018-02-27T22:55:19.361Z,25.52
2018-02-27T22:57:47.125Z,33.17
2018-02-27T23:00:14.878Z,40.42
2018-02-27T23:02:42.455Z,31.23
2018-02-27T23:05:10.100Z,35.38
2018-02-27T23:07:38.055Z,29.42
2018-02-27T23:10:05.811Z,32.08
2018-02-27T23:12:33.399Z,35.40
2018-02-27T23:15:00.966Z,39.13
2018-02-27T23:17:28.708Z,45.78
2018-02-27T23:19:56.287Z,20.75
2018-02-27T23:22:24.022Z,30.42
2018-02-27T23:24:57.330Z,28.08
2018-02-27T23:27:26.332Z,30.60
2018-02-27T23:29:54.826Z,39.38
2018-02-27T23:32:26.331Z,38.55
2018-02-27T23:34:54.677Z,30.85
2018-02-27T23:37:22.510Z,47.70
2018-02-27T23:39:50.570Z,33.85
2018-02-27T23:42:18.110Z,25.20
2018-02-27T23:44:45.766Z,44.35
2018-02-27T23:47:13.286Z,35.97
2018-02-27T23:49:40.812Z,22.62
2018-02-27T23:52:08.683Z,31.73
2018-02-27T23:54:36.552Z,32.63
2018-02-27T23:57:04.575Z,31.92
2018-02-27T23:59:32.088Z,22.55
